createdAt,value
2023-03-22T00:01:54.356Z,77.53
2023-03-22T00:04:56.107Z,77.64
2023-03-22T00:07:58.197Z,77.62
2023-03-22T00:10:59.928Z,77.62
2023-03-22T00:14:01.467Z,77.48
2023-03-22T00:17:03.069Z,77.59
2023-03-22T00:20:05.664Z,77.69
2023-03-22T00:23:07.265Z,77.64
2023-03-22T00:26:09.274Z,77.69
2023-03-22T00:29:10.842Z,77.82
2023-03-22T00:32:12.307Z,77.78
2023-03-22T00:35:14.086Z,77.72
2023-03-22T00:38:15.709Z,77.87
2023-03-22T00:41:21.558Z,77.73
2023-03-22T00:44:23.259Z,77.86
2023-03-22T00:47:24.900Z,77.84
2023-03-22T00:50:26.518Z,77.73
2023-03-22T00:53:28.211Z,77.82
2023-03-22T00:56:33.001Z,77.69
2023-03-22T00:59:34.601Z,77.61
2023-03-22T01:02:36.412Z,77.59
2023-03-22T01:05:38.432Z,77.68
2023-03-22T01:08:40.166Z,77.67
2023-03-22T01:11:42.868Z,77.74
2023-03-22T01:14:44.664Z,77.77
2023-03-22T01:17:46.516Z,77.78
2023-03-22T01:20:48.242Z,77.91
2023-03-22T01:23:49.859Z,77.87
2023-03-22T01:26:51.494Z,77.85
2023-03-22T01:29:53.308Z,78.01
2023-03-22T01:32:56.022Z,78.07
2023-03-22T01:35:57.945Z,78.16
2023-03-22T01:38:59.815Z,78.16
2023-03-22T01:42:02.815Z,78.14
2023-03-22T01:45:38.132Z,77.96
2023-03-22T01:48:42.331Z,78.33
2023-03-22T01:51:46.789Z,78.31
2023-03-22T01:54:50.728Z,78.23
2023-03-22T01:57:53.567Z,78.33
2023-03-22T02:00:55.428Z,78.30
2023-03-22T02:04:05.666Z,78.46
2023-03-22T02:07:13.589Z,78.19
2023-03-22T02:10:33.357Z,78.18
2023-03-22T02:14:09.090Z,78.22
2023-03-22T02:17:31.968Z,78.41
2023-03-22T02:20:53.135Z,78.47
2023-03-22T02:24:15.097Z,78.30
2023-03-22T02:27:41.599Z,78.21
2023-03-22T02:31:17.234Z,78.14
2023-03-22T02:34:44.423Z,78.37
2023-03-22T02:38:05.743Z,78.26
2023-03-22T02:41:32.107Z,78.40
2023-03-22T02:44:49.787Z,78.42
2023-03-22T02:48:01.310Z,78.48
2023-03-22T02:51:08.439Z,78.38
2023-03-22T02:54:13.845Z,78.51
2023-03-22T02:57:33.918Z,78.54
2023-03-22T03:00:36.351Z,78.56
2023-03-22T03:03:39.198Z,78.70
2023-03-22T03:06:43.607Z,78.35
2023-03-22T03:09:45.628Z,78.51
2023-03-22T03:12:47.412Z,78.27
2023-03-22T03:15:52.878Z,78.05
2023-03-22T03:19:08.008Z,78.02
2023-03-22T03:22:33.001Z,78.29
2023-03-22T03:26:12.239Z,78.67
2023-03-22T03:29:36.933Z,78.97
2023-03-22T03:32:47.715Z,78.87
2023-03-22T03:35:58.837Z,78.99
2023-03-22T03:39:01.820Z,79.04
2023-03-22T03:42:04.816Z,79.15
2023-03-22T03:45:07.801Z,79.08
2023-03-22T03:48:15.441Z,79.26
2023-03-22T03:51:17.270Z,78.80
2023-03-22T03:54:18.749Z,79.05
2023-03-22T03:57:21.071Z,79.37
2023-03-22T04:00:23.023Z,79.25
2023-03-22T04:03:25.528Z,79.06
2023-03-22T04:06:27.814Z,79.15
2023-03-22T04:09:35.286Z,78.84
2023-03-22T04:12:37.033Z,78.86
2023-03-22T04:15:38.717Z,78.95
2023-03-22T04:18:40.195Z,79.01
2023-03-22T04:21:42.303Z,78.99
2023-03-22T04:24:44.870Z,78.97
2023-03-22T04:27:47.200Z,79.03
2023-03-22T04:30:49.452Z,79.32
2023-03-22T04:33:51.358Z,79.06
2023-03-22T04:36:53.306Z,79.61
2023-03-22T04:39:55.077Z,79.47
2023-03-22T04:42:56.705Z,79.61
2023-03-22T04:46:03.965Z,79.78
2023-03-22T04:49:06.277Z,79.73
2023-03-22T04:52:08.369Z,79.71
2023-03-22T04:55:10.062Z,79.78
2023-03-22T04:58:11.708Z,79.76
2023-03-22T05:01:16.556Z,79.39
2023-03-22T05:04:19.036Z,79.33
2023-03-22T05:07:20.837Z,79.41
2023-03-22T05:10:22.326Z,79.19
2023-03-22T05:13:26.495Z,79.25
2023-03-22T05:16:28.252Z,79.46
2023-03-22T05:19:29.947Z,79.72
2023-03-22T05:22:31.455Z,80.13
2023-03-22T05:25:33.328Z,80.20
2023-03-22T05:28:35.009Z,80.39
2023-03-22T05:31:36.840Z,80.64
2023-03-22T05:34:38.501Z,80.63
2023-03-22T05:37:40.388Z,80.67
2023-03-22T05:40:43.085Z,80.95
2023-03-22T05:43:44.808Z,80.63
2023-03-22T05:46:46.701Z,80.99
2023-03-22T05:49:48.751Z,81.00
2023-03-22T05:52:50.983Z,80.78
2023-03-22T05:55:55.362Z,80.73
2023-03-22T05:58:57.137Z,80.63
2023-03-22T06:01:59.125Z,80.50
2023-03-22T06:05:00.785Z,80.83
2023-03-22T06:08:02.626Z,80.90
2023-03-22T06:11:07.754Z,81.09
2023-03-22T06:14:12.597Z,81.03
2023-03-22T06:17:14.288Z,81.25
2023-03-22T06:20:15.861Z,81.12
2023-03-22T06:23:17.551Z,81.25
2023-03-22T06:26:21.850Z,81.23
2023-03-22T06:29:24.546Z,81.10
2023-03-22T06:32:26.650Z,81.47
2023-03-22T06:35:28.226Z,81.09
2023-03-22T06:38:30.181Z,80.91
2023-03-22T06:41:31.838Z,80.61
2023-03-22T06:44:33.976Z,80.39
2023-03-22T06:47:35.522Z,80.43
2023-03-22T06:50:37.440Z,80.67
2023-03-22T06:53:39.303Z,80.16
2023-03-22T06:56:40.879Z,80.27
2023-03-22T06:59:42.592Z,79.91
2023-03-22T07:02:44.252Z,79.57
2023-03-22T07:05:46.082Z,80.02
2023-03-22T07:08:48.005Z,79.94
2023-03-22T07:11:50.333Z,79.87
2023-03-22T07:14:51.778Z,79.98
2023-03-22T07:17:53.378Z,80.42
2023-03-22T07:20:54.874Z,80.62
2023-03-22T07:23:56.557Z,80.30
2023-03-22T07:26:58.087Z,79.88
2023-03-22T07:29:59.748Z,79.88
2023-03-22T07:33:01.454Z,79.83
2023-03-22T07:36:04.318Z,79.97
2023-03-22T07:39:05.978Z,80.44
2023-03-22T07:42:07.648Z,80.16
2023-03-22T07:45:09.642Z,79.59
2023-03-22T07:48:11.436Z,78.75
2023-03-22T07:51:13.102Z,78.55
2023-03-22T07:54:30.601Z,78.82
2023-03-22T07:57:35.741Z,79.88
2023-03-22T08:00:37.651Z,80.81
2023-03-22T08:03:39.391Z,79.94
2023-03-22T08:06:41.692Z,80.26
2023-03-22T08:09:43.392Z,78.98
2023-03-22T08:12:44.993Z,77.47
2023-03-22T08:15:46.697Z,76.69
2023-03-22T08:18:48.702Z,77.51
2023-03-22T08:21:50.339Z,76.86
2023-03-22T08:24:52.384Z,75.78
2023-03-22T08:27:54.045Z,75.07
2023-03-22T08:30:55.568Z,74.82
2023-03-22T08:33:57.288Z,73.72
2023-03-22T08:36:58.974Z,73.00
2023-03-22T08:40:00.671Z,72.92
2023-03-22T08:43:02.332Z,73.02
2023-03-22T08:46:04.202Z,72.38
2023-03-22T08:49:05.775Z,71.16
2023-03-22T08:52:07.485Z,70.62
2023-03-22T08:55:09.778Z,69.07
2023-03-22T08:58:15.895Z,68.80
2023-03-22T09:01:17.744Z,68.18
2023-03-22T09:04:19.546Z,66.71
2023-03-22T09:07:21.261Z,66.57
2023-03-22T09:10:22.825Z,66.43
2023-03-22T09:13:24.579Z,64.79
2023-03-22T09:16:26.722Z,64.76
2023-03-22T09:19:28.530Z,65.39
2023-03-22T09:22:30.090Z,64.86
2023-03-22T09:25:31.771Z,64.94
2023-03-22T09:28:33.856Z,64.83
2023-03-22T09:31:35.449Z,65.25
2023-03-22T09:34:37.045Z,64.57
2023-03-22T09:37:38.695Z,64.87
2023-03-22T09:40:51.980Z,63.76
2023-03-22T09:44:00.530Z,62.97
2023-03-22T09:47:04.050Z,61.10
2023-03-22T09:50:12.028Z,60.40
2023-03-22T09:53:15.721Z,59.44
2023-03-22T09:56:21.438Z,59.71
2023-03-22T09:59:39.071Z,58.74
2023-03-22T10:02:46.611Z,58.18
2023-03-22T10:06:01.411Z,61.19
2023-03-22T10:09:21.387Z,60.68
2023-03-22T10:12:31.885Z,61.78
2023-03-22T10:15:37.478Z,61.14
2023-03-22T10:18:45.452Z,59.31
2023-03-22T10:21:50.164Z,60.36
2023-03-22T10:24:52.729Z,61.75
2023-03-22T10:27:54.488Z,63.01
2023-03-22T10:30:57.375Z,62.94
2023-03-22T10:34:17.044Z,63.32
2023-03-22T10:37:22.645Z,63.46
2023-03-22T10:40:33.051Z,63.56
2023-03-22T10:43:39.324Z,63.63
2023-03-22T10:46:41.762Z,63.66
2023-03-22T10:49:47.425Z,63.07
2023-03-22T10:53:14.248Z,62.68
2023-03-22T10:56:17.991Z,61.92
2023-03-22T10:59:50.848Z,62.08
2023-03-22T11:02:54.193Z,62.01
2023-03-22T11:06:07.298Z,60.91
2023-03-22T11:09:16.617Z,60.42
2023-03-22T11:12:18.322Z,61.05
2023-03-22T11:15:30.315Z,60.40
2023-03-22T11:18:34.214Z,60.51
2023-03-22T11:21:35.945Z,59.96
2023-03-22T11:24:37.613Z,57.53
2023-03-22T11:28:06.323Z,58.54
2023-03-22T11:31:19.546Z,59.41
2023-03-22T11:34:23.058Z,59.10
2023-03-22T11:37:24.727Z,57.00
2023-03-22T11:40:34.873Z,58.54
2023-03-22T11:43:41.106Z,56.37
2023-03-22T11:46:54.368Z,55.46
2023-03-22T11:49:55.948Z,57.58
2023-03-22T11:52:57.501Z,56.44
2023-03-22T11:55:59.912Z,55.15
2023-03-22T11:59:08.441Z,55.71
2023-03-22T12:02:31.236Z,54.28
2023-03-22T12:05:39.218Z,54.92
2023-03-22T12:08:56.826Z,54.40
2023-03-22T12:12:00.379Z,54.10
2023-03-22T12:15:06.575Z,54.92
2023-03-22T12:18:24.580Z,55.46
2023-03-22T12:21:26.199Z,55.59
2023-03-22T12:24:32.245Z,54.71
2023-03-22T12:27:37.416Z,53.98
2023-03-22T12:30:43.189Z,53.06
2023-03-22T12:33:49.432Z,55.09
2023-03-22T12:36:53.548Z,54.94
2023-03-22T12:40:13.648Z,53.65
2023-03-22T12:43:45.446Z,54.20
2023-03-22T12:46:51.532Z,55.37
2023-03-22T12:50:00.974Z,54.81
2023-03-22T12:53:02.958Z,53.53
2023-03-22T12:56:05.174Z,53.13
2023-03-22T12:59:15.472Z,54.12
2023-03-22T13:02:20.121Z,53.19
2023-03-22T13:05:21.812Z,54.09
2023-03-22T13:08:23.442Z,53.43
2023-03-22T13:11:25.235Z,54.11
2023-03-22T13:14:48.811Z,52.90
2023-03-22T13:17:50.379Z,53.62
2023-03-22T13:21:15.532Z,53.84
2023-03-22T13:24:20.763Z,53.22
2023-03-22T13:27:22.484Z,51.53
2023-03-22T13:30:36.329Z,49.09
2023-03-22T13:33:37.956Z,49.06
2023-03-22T13:36:39.874Z,51.31
2023-03-22T13:39:41.554Z,52.25
2023-03-22T13:42:43.132Z,50.93
2023-03-22T13:46:03.613Z,49.94
2023-03-22T13:49:37.868Z,48.42
2023-03-22T13:52:42.489Z,49.21
2023-03-22T13:55:46.725Z,47.71
2023-03-22T13:58:51.147Z,50.56
2023-03-22T14:02:16.742Z,50.49
2023-03-22T14:05:22.032Z,51.21
2023-03-22T14:08:26.748Z,51.14
2023-03-22T14:11:32.939Z,50.43
2023-03-22T14:14:41.310Z,49.97
2023-03-22T14:18:01.185Z,50.56
2023-03-22T14:21:09.878Z,51.52
